sensor_id;sensor_type;location;lat;lon;timestamp;temperature;humidity
6098;DHT22;3077;50.922;6.584;2023-07-13T00:00:44;17.90;96.90
6098;DHT22;3077;50.922;6.584;2023-07-13T00:03:09;17.80;97.70
6098;DHT22;3077;50.922;6.584;2023-07-13T00:05:40;17.80;98.50
6098;DHT22;3077;50.922;6.584;2023-07-13T00:08:06;17.80;99.20
6098;DHT22;3077;50.922;6.584;2023-07-13T00:10:33;17.70;99.90
6098;DHT22;3077;50.922;6.584;2023-07-13T00:12:59;17.70;99.90
6098;DHT22;3077;50.922;6.584;2023-07-13T00:15:26;17.70;99.90
6098;DHT22;3077;50.922;6.584;2023-07-13T00:17:54;17.70;99.90
6098;DHT22;3077;50.922;6.584;2023-07-13T00:20:22;17.70;99.90
6098;DHT22;3077;50.922;6.584;2023-07-13T00:22:49;17.70;99.90
6098;DHT22;3077;50.922;6.584;2023-07-13T00:25:15;17.60;99.90
6098;DHT22;3077;50.922;6.584;2023-07-13T00:27:42;17.50;99.90
6098;DHT22;3077;50.922;6.584;2023-07-13T00:30:09;17.50;99.90
6098;DHT22;3077;50.922;6.584;2023-07-13T00:32:35;17.50;99.90
6098;DHT22;3077;50.922;6.584;2023-07-13T00:35:02;17.50;99.90
6098;DHT22;3077;50.922;6.584;2023-07-13T00:37:28;17.50;99.90
6098;DHT22;3077;50.922;6.584;2023-07-13T00:39:54;17.40;99.90
6098;DHT22;3077;50.922;6.584;2023-07-13T00:42:20;17.40;99.90
6098;DHT22;3077;50.922;6.584;2023-07-13T00:45:05;17.40;99.90
6098;DHT22;3077;50.922;6.584;2023-07-13T00:47:31;17.30;99.90
6098;DHT22;3077;50.922;6.584;2023-07-13T00:49:57;17.30;99.90
6098;DHT22;3077;50.922;6.584;2023-07-13T00:52:23;17.30;99.90
6098;DHT22;3077;50.922;6.584;2023-07-13T00:54:49;17.30;99.90
6098;DHT22;3077;50.922;6.584;2023-07-13T00:57:18;17.30;99.90
6098;DHT22;3077;50.922;6.584;2023-07-13T00:59:47;17.30;99.90
6098;DHT22;3077;50.922;6.584;2023-07-13T01:02:13;17.20;99.90
6098;DHT22;3077;50.922;6.584;2023-07-13T01:04:39;17.20;99.90
6098;DHT22;3077;50.922;6.584;2023-07-13T01:07:06;17.20;99.90
6098;DHT22;3077;50.922;6.584;2023-07-13T01:09:32;17.20;99.90
6098;DHT22;3077;50.922;6.584;2023-07-13T01:11:57;17.20;99.90
6098;DHT22;3077;50.922;6.584;2023-07-13T01:14:24;17.10;99.90
6098;DHT22;3077;50.922;6.584;2023-07-13T01:16:50;17.10;99.90
6098;DHT22;3077;50.922;6.584;2023-07-13T01:19:36;17.10;99.90
6098;DHT22;3077;50.922;6.584;2023-07-13T01:22:17;17.00;99.90
6098;DHT22;3077;50.922;6.584;2023-07-13T01:24:45;17.00;99.90
6098;DHT22;3077;50.922;6.584;2023-07-13T01:27:14;16.80;99.90
6098;DHT22;3077;50.922;6.584;2023-07-13T01:29:41;16.80;99.90
6098;DHT22;3077;50.922;6.584;2023-07-13T01:32:10;16.80;99.90
6098;DHT22;3077;50.922;6.584;2023-07-13T01:34:36;16.70;99.90
6098;DHT22;3077;50.922;6.584;2023-07-13T01:37:03;16.70;99.90
6098;DHT22;3077;50.922;6.584;2023-07-13T01:39:29;16.60;99.90
6098;DHT22;3077;50.922;6.584;2023-07-13T01:41:55;16.60;99.90
6098;DHT22;3077;50.922;6.584;2023-07-13T01:44:20;16.60;99.90
6098;DHT22;3077;50.922;6.584;2023-07-13T01:46:46;16.60;99.90
6098;DHT22;3077;50.922;6.584;2023-07-13T01:49:11;16.60;99.90
6098;DHT22;3077;50.922;6.584;2023-07-13T01:51:37;16.60;99.90
6098;DHT22;3077;50.922;6.584;2023-07-13T01:54:03;16.70;99.90
6098;DHT22;3077;50.922;6.584;2023-07-13T01:56:28;16.50;99.90
6098;DHT22;3077;50.922;6.584;2023-07-13T01:58:54;16.50;99.90
6098;DHT22;3077;50.922;6.584;2023-07-13T02:01:19;16.50;99.90
6098;DHT22;3077;50.922;6.584;2023-07-13T02:03:45;16.50;99.90
6098;DHT22;3077;50.922;6.584;2023-07-13T02:06:12;16.50;99.90
6098;DHT22;3077;50.922;6.584;2023-07-13T02:08:37;16.50;99.90
6098;DHT22;3077;50.922;6.584;2023-07-13T02:11:03;16.40;99.90
6098;DHT22;3077;50.922;6.584;2023-07-13T02:13:29;16.50;99.90
6098;DHT22;3077;50.922;6.584;2023-07-13T02:15:54;16.50;99.90
6098;DHT22;3077;50.922;6.584;2023-07-13T02:18:20;16.50;99.90
6098;DHT22;3077;50.922;6.584;2023-07-13T02:20:45;16.40;99.90
6098;DHT22;3077;50.922;6.584;2023-07-13T02:23:11;16.30;99.90
6098;DHT22;3077;50.922;6.584;2023-07-13T02:25:37;16.40;99.90
6098;DHT22;3077;50.922;6.584;2023-07-13T02:28:03;16.30;99.90
6098;DHT22;3077;50.922;6.584;2023-07-13T02:30:30;16.30;99.90
6098;DHT22;3077;50.922;6.584;2023-07-13T02:32:57;16.30;99.90
6098;DHT22;3077;50.922;6.584;2023-07-13T02:35:22;16.30;99.90
6098;DHT22;3077;50.922;6.584;2023-07-13T02:37:48;16.30;99.90
6098;DHT22;3077;50.922;6.584;2023-07-13T02:40:14;16.20;99.90
6098;DHT22;3077;50.922;6.584;2023-07-13T02:42:40;16.20;99.90
6098;DHT22;3077;50.922;6.584;2023-07-13T02:45:07;16.20;99.90
6098;DHT22;3077;50.922;6.584;2023-07-13T02:47:33;16.10;99.90
6098;DHT22;3077;50.922;6.584;2023-07-13T02:49:59;16.10;99.90
6098;DHT22;3077;50.922;6.584;2023-07-13T02:52:25;16.00;99.90
6098;DHT22;3077;50.922;6.584;2023-07-13T02:54:50;16.00;99.90
6098;DHT22;3077;50.922;6.584;2023-07-13T02:57:16;16.00;99.90
6098;DHT22;3077;50.922;6.584;2023-07-13T02:59:42;16.00;99.90
6098;DHT22;3077;50.922;6.584;2023-07-13T03:02:08;16.00;99.90
6098;DHT22;3077;50.922;6.584;2023-07-13T03:04:36;15.90;99.90
6098;DHT22;3077;50.922;6.584;2023-07-13T03:07:02;15.90;99.90
6098;DHT22;3077;50.922;6.584;2023-07-13T03:09:28;15.90;99.90
6098;DHT22;3077;50.922;6.584;2023-07-13T03:11:55;15.90;99.90
6098;DHT22;3077;50.922;6.584;2023-07-13T03:14:22;15.90;99.90
6098;DHT22;3077;50.922;6.584;2023-07-13T03:16:48;15.90;99.90
6098;DHT22;3077;50.922;6.584;2023-07-13T03:19:14;15.90;99.90
6098;DHT22;3077;50.922;6.584;2023-07-13T03:21:40;15.90;99.90
6098;DHT22;3077;50.922;6.584;2023-07-13T03:24:05;15.90;99.90
6098;DHT22;3077;50.922;6.584;2023-07-13T03:26:31;15.80;99.90
6098;DHT22;3077;50.922;6.584;2023-07-13T03:28:57;15.80;99.90
6098;DHT22;3077;50.922;6.584;2023-07-13T03:31:26;15.70;99.90
6098;DHT22;3077;50.922;6.584;2023-07-13T03:33:52;15.70;99.90
6098;DHT22;3077;50.922;6.584;2023-07-13T03:36:23;15.70;99.90
6098;DHT22;3077;50.922;6.584;2023-07-13T03:38:51;15.70;99.90
6098;DHT22;3077;50.922;6.584;2023-07-13T03:41:17;15.70;99.90
6098;DHT22;3077;50.922;6.584;2023-07-13T03:43:43;15.60;99.90
6098;DHT22;3077;50.922;6.584;2023-07-13T03:46:09;15.60;99.90
6098;DHT22;3077;50.922;6.584;2023-07-13T03:48:34;15.70;99.90
6098;DHT22;3077;50.922;6.584;2023-07-13T03:51:00;15.70;99.90
6098;DHT22;3077;50.922;6.584;2023-07-13T03:53:26;15.60;99.90
6098;DHT22;3077;50.922;6.584;2023-07-13T03:55:51;15.60;99.90
6098;DHT22;3077;50.922;6.584;2023-07-13T03:58:34;15.70;99.90
6098;DHT22;3077;50.922;6.584;2023-07-13T04:01:01;15.70;99.90
6098;DHT22;3077;50.922;6.584;2023-07-13T04:03:28;15.70;99.90
6098;DHT22;3077;50.922;6.584;2023-07-13T04:05:57;15.70;99.90
6098;DHT22;3077;50.922;6.584;2023-07-13T04:08:26;15.70;99.90
6098;DHT22;3077;50.922;6.584;2023-07-13T04:10:52;15.80;99.90
6098;DHT22;3077;50.922;6.584;2023-07-13T04:13:18;15.80;99.90
6098;DHT22;3077;50.922;6.584;2023-07-13T04:15:43;15.90;99.90
6098;DHT22;3077;50.922;6.584;2023-07-13T04:18:09;15.90;99.90
6098;DHT22;3077;50.922;6.584;2023-07-13T04:20:34;15.90;99.90
6098;DHT22;3077;50.922;6.584;2023-07-13T04:23:00;15.90;99.90
6098;DHT22;3077;50.922;6.584;2023-07-13T04:25:26;16.00;99.90
6098;DHT22;3077;50.922;6.584;2023-07-13T04:27:53;16.10;99.90
6098;DHT22;3077;50.922;6.584;2023-07-13T04:30:19;16.10;99.90
6098;DHT22;3077;50.922;6.584;2023-07-13T04:32:44;16.10;99.90
6098;DHT22;3077;50.922;6.584;2023-07-13T04:35:10;16.00;99.90
6098;DHT22;3077;50.922;6.584;2023-07-13T04:37:36;16.00;99.90
6098;DHT22;3077;50.922;6.584;2023-07-13T04:40:03;16.00;99.90
6098;DHT22;3077;50.922;6.584;2023-07-13T04:42:29;16.10;99.90
6098;DHT22;3077;50.922;6.584;2023-07-13T04:44:55;16.10;99.90
6098;DHT22;3077;50.922;6.584;2023-07-13T04:47:21;16.20;99.90
6098;DHT22;3077;50.922;6.584;2023-07-13T04:49:47;16.20;99.90
6098;DHT22;3077;50.922;6.584;2023-07-13T04:52:13;16.20;99.90
6098;DHT22;3077;50.922;6.584;2023-07-13T04:54:39;16.30;99.90
6098;DHT22;3077;50.922;6.584;2023-07-13T04:57:05;16.40;99.90
6098;DHT22;3077;50.922;6.584;2023-07-13T04:59:34;16.40;99.90
6098;DHT22;3077;50.922;6.584;2023-07-13T05:02:00;16.40;99.90
6098;DHT22;3077;50.922;6.584;2023-07-13T05:04:27;16.50;99.90
6098;DHT22;3077;50.922;6.584;2023-07-13T05:06:52;16.50;99.90
6098;DHT22;3077;50.922;6.584;2023-07-13T05:09:18;16.60;99.90
6098;DHT22;3077;50.922;6.584;2023-07-13T05:11:44;16.60;99.90
6098;DHT22;3077;50.922;6.584;2023-07-13T05:14:09;16.60;99.90
6098;DHT22;3077;50.922;6.584;2023-07-13T05:16:36;16.60;99.90
6098;DHT22;3077;50.922;6.584;2023-07-13T05:19:02;16.60;99.90
6098;DHT22;3077;50.922;6.584;2023-07-13T05:21:28;16.70;99.90
6098;DHT22;3077;50.922;6.584;2023-07-13T05:23:54;16.80;99.90
6098;DHT22;3077;50.922;6.584;2023-07-13T05:26:19;16.80;99.90
6098;DHT22;3077;50.922;6.584;2023-07-13T05:28:46;16.80;99.90
6098;DHT22;3077;50.922;6.584;2023-07-13T05:31:12;17.00;99.90
6098;DHT22;3077;50.922;6.584;2023-07-13T05:33:38;17.00;99.90
6098;DHT22;3077;50.922;6.584;2023-07-13T05:36:04;17.10;99.90
6098;DHT22;3077;50.922;6.584;2023-07-13T05:38:29;17.20;99.90
6098;DHT22;3077;50.922;6.584;2023-07-13T05:40:55;17.30;99.90
6098;DHT22;3077;50.922;6.584;2023-07-13T05:43:22;17.40;99.90
6098;DHT22;3077;50.922;6.584;2023-07-13T05:45:48;17.50;99.90
6098;DHT22;3077;50.922;6.584;2023-07-13T05:48:14;17.50;99.90
6098;DHT22;3077;50.922;6.584;2023-07-13T05:50:40;17.50;99.90
6098;DHT22;3077;50.922;6.584;2023-07-13T05:53:05;17.50;99.90
6098;DHT22;3077;50.922;6.584;2023-07-13T05:55:32;17.50;99.90
6098;DHT22;3077;50.922;6.584;2023-07-13T05:57:58;17.50;99.90
6098;DHT22;3077;50.922;6.584;2023-07-13T06:00:25;17.50;99.90
6098;DHT22;3077;50.922;6.584;2023-07-13T06:02:50;17.50;99.90
6098;DHT22;3077;50.922;6.584;2023-07-13T06:05:16;17.50;99.90
6098;DHT22;3077;50.922;6.584;2023-07-13T06:07:42;17.40;99.90
6098;DHT22;3077;50.922;6.584;2023-07-13T06:10:08;17.50;99.90
6098;DHT22;3077;50.922;6.584;2023-07-13T06:12:33;17.60;99.90
6098;DHT22;3077;50.922;6.584;2023-07-13T06:14:59;17.60;99.90
6098;DHT22;3077;50.922;6.584;2023-07-13T06:17:24;17.50;99.90
6098;DHT22;3077;50.922;6.584;2023-07-13T06:19:50;17.50;99.90
6098;DHT22;3077;50.922;6.584;2023-07-13T06:22:15;17.50;99.90
6098;DHT22;3077;50.922;6.584;2023-07-13T06:24:41;17.50;99.90
6098;DHT22;3077;50.922;6.584;2023-07-13T06:27:07;17.50;99.90
6098;DHT22;3077;50.922;6.584;2023-07-13T06:29:33;17.60;99.90
6098;DHT22;3077;50.922;6.584;2023-07-13T06:31:58;17.70;99.90
6098;DHT22;3077;50.922;6.584;2023-07-13T06:34:24;17.90;99.90
6098;DHT22;3077;50.922;6.584;2023-07-13T06:36:49;18.00;99.90
6098;DHT22;3077;50.922;6.584;2023-07-13T06:39:15;18.00;99.90
6098;DHT22;3077;50.922;6.584;2023-07-13T06:41:41;18.00;99.90
6098;DHT22;3077;50.922;6.584;2023-07-13T06:44:06;17.90;99.90
6098;DHT22;3077;50.922;6.584;2023-07-13T06:46:32;17.90;99.90
6098;DHT22;3077;50.922;6.584;2023-07-13T06:48:57;17.90;99.90
6098;DHT22;3077;50.922;6.584;2023-07-13T06:51:23;18.00;99.90
6098;DHT22;3077;50.922;6.584;2023-07-13T06:53:49;18.10;99.90
6098;DHT22;3077;50.922;6.584;2023-07-13T06:56:15;18.30;99.90
6098;DHT22;3077;50.922;6.584;2023-07-13T06:58:41;18.40;99.90
6098;DHT22;3077;50.922;6.584;2023-07-13T07:01:06;18.70;99.90
6098;DHT22;3077;50.922;6.584;2023-07-13T07:03:32;18.80;99.90
6098;DHT22;3077;50.922;6.584;2023-07-13T07:06:23;18.90;99.90
6098;DHT22;3077;50.922;6.584;2023-07-13T07:08:51;19.10;99.90
6098;DHT22;3077;50.922;6.584;2023-07-13T07:11:22;19.10;99.90
6098;DHT22;3077;50.922;6.584;2023-07-13T07:13:49;19.10;99.90
6098;DHT22;3077;50.922;6.584;2023-07-13T07:16:15;19.00;99.90
6098;DHT22;3077;50.922;6.584;2023-07-13T07:18:41;19.00;99.90
6098;DHT22;3077;50.922;6.584;2023-07-13T07:21:07;19.10;99.90
6098;DHT22;3077;50.922;6.584;2023-07-13T07:23:32;19.10;99.90
6098;DHT22;3077;50.922;6.584;2023-07-13T07:25:58;19.20;99.90
6098;DHT22;3077;50.922;6.584;2023-07-13T07:28:24;19.20;99.90
6098;DHT22;3077;50.922;6.584;2023-07-13T07:30:54;19.00;99.90
6098;DHT22;3077;50.922;6.584;2023-07-13T07:33:20;19.00;99.90
6098;DHT22;3077;50.922;6.584;2023-07-13T07:35:46;18.90;99.90
6098;DHT22;3077;50.922;6.584;2023-07-13T07:38:12;19.00;99.90
6098;DHT22;3077;50.922;6.584;2023-07-13T07:40:38;19.00;99.90
6098;DHT22;3077;50.922;6.584;2023-07-13T07:43:03;19.00;99.90
6098;DHT22;3077;50.922;6.584;2023-07-13T07:45:30;19.10;99.90
6098;DHT22;3077;50.922;6.584;2023-07-13T07:47:56;19.10;99.90
6098;DHT22;3077;50.922;6.584;2023-07-13T07:50:27;19.20;99.90
6098;DHT22;3077;50.922;6.584;2023-07-13T07:52:53;19.30;99.90
6098;DHT22;3077;50.922;6.584;2023-07-13T07:55:21;19.50;99.90
6098;DHT22;3077;50.922;6.584;2023-07-13T07:57:46;19.60;99.90
6098;DHT22;3077;50.922;6.584;2023-07-13T08:00:13;19.80;99.90
6098;DHT22;3077;50.922;6.584;2023-07-13T08:02:38;19.80;99.90
6098;DHT22;3077;50.922;6.584;2023-07-13T08:05:09;19.90;99.90
6098;DHT22;3077;50.922;6.584;2023-07-13T08:07:36;20.20;99.90
6098;DHT22;3077;50.922;6.584;2023-07-13T08:10:03;20.30;99.90
6098;DHT22;3077;50.922;6.584;2023-07-13T08:12:29;20.50;99.90
6098;DHT22;3077;50.922;6.584;2023-07-13T08:14:54;20.60;99.90
6098;DHT22;3077;50.922;6.584;2023-07-13T08:17:23;20.70;99.90
6098;DHT22;3077;50.922;6.584;2023-07-13T08:19:49;20.90;99.90
6098;DHT22;3077;50.922;6.584;2023-07-13T08:22:15;21.00;99.90
6098;DHT22;3077;50.922;6.584;2023-07-13T08:24:41;21.00;99.90
6098;DHT22;3077;50.922;6.584;2023-07-13T08:27:13;21.10;99.90
6098;DHT22;3077;50.922;6.584;2023-07-13T08:29:39;21.10;99.90
6098;DHT22;3077;50.922;6.584;2023-07-13T08:32:06;21.20;99.90
6098;DHT22;3077;50.922;6.584;2023-07-13T08:34:34;21.10;99.90
6098;DHT22;3077;50.922;6.584;2023-07-13T08:37:02;21.00;99.90
6098;DHT22;3077;50.922;6.584;2023-07-13T08:39:29;20.90;99.90
6098;DHT22;3077;50.922;6.584;2023-07-13T08:42:02;20.80;99.90
6098;DHT22;3077;50.922;6.584;2023-07-13T08:44:51;20.80;99.90
6098;DHT22;3077;50.922;6.584;2023-07-13T08:47:22;20.80;99.90
6098;DHT22;3077;50.922;6.584;2023-07-13T08:49:50;20.80;99.90
6098;DHT22;3077;50.922;6.584;2023-07-13T08:52:42;21.00;99.90
6098;DHT22;3077;50.922;6.584;2023-07-13T08:55:16;21.20;99.90
6098;DHT22;3077;50.922;6.584;2023-07-13T08:57:46;21.40;99.90
6098;DHT22;3077;50.922;6.584;2023-07-13T09:00:14;21.30;99.90
6098;DHT22;3077;50.922;6.584;2023-07-13T09:02:59;21.20;99.90
6098;DHT22;3077;50.922;6.584;2023-07-13T09:05:40;21.20;99.90
6098;DHT22;3077;50.922;6.584;2023-07-13T09:10:44;21.40;99.90
6098;DHT22;3077;50.922;6.584;2023-07-13T09:16:01;21.80;99.90
6098;DHT22;3077;50.922;6.584;2023-07-13T09:18:38;21.80;99.90
6098;DHT22;3077;50.922;6.584;2023-07-13T09:21:09;21.70;99.90
6098;DHT22;3077;50.922;6.584;2023-07-13T09:23:36;21.70;99.90
6098;DHT22;3077;50.922;6.584;2023-07-13T09:26:18;21.70;99.90
6098;DHT22;3077;50.922;6.584;2023-07-13T09:28:48;21.70;99.90
6098;DHT22;3077;50.922;6.584;2023-07-13T09:31:23;21.80;99.90
6098;DHT22;3077;50.922;6.584;2023-07-13T09:33:49;21.90;99.90
6098;DHT22;3077;50.922;6.584;2023-07-13T09:38:49;21.90;99.90
6098;DHT22;3077;50.922;6.584;2023-07-13T09:41:29;21.80;99.90
6098;DHT22;3077;50.922;6.584;2023-07-13T09:44:15;21.80;99.90
6098;DHT22;3077;50.922;6.584;2023-07-13T09:46:46;21.80;99.90
6098;DHT22;3077;50.922;6.584;2023-07-13T09:49:13;21.80;99.90
6098;DHT22;3077;50.922;6.584;2023-07-13T09:51:42;21.70;99.90
6098;DHT22;3077;50.922;6.584;2023-07-13T09:54:21;21.90;99.90
6098;DHT22;3077;50.922;6.584;2023-07-13T09:56:47;21.90;99.90
6098;DHT22;3077;50.922;6.584;2023-07-13T09:59:23;22.20;99.90
6098;DHT22;3077;50.922;6.584;2023-07-13T10:01:50;22.40;99.90
6098;DHT22;3077;50.922;6.584;2023-07-13T10:04:20;22.40;99.90
6098;DHT22;3077;50.922;6.584;2023-07-13T10:06:46;22.40;99.90
6098;DHT22;3077;50.922;6.584;2023-07-13T10:09:16;22.50;99.90
6098;DHT22;3077;50.922;6.584;2023-07-13T10:11:42;22.90;99.90
6098;DHT22;3077;50.922;6.584;2023-07-13T10:14:18;23.30;99.90
6098;DHT22;3077;50.922;6.584;2023-07-13T10:16:46;23.30;99.90
6098;DHT22;3077;50.922;6.584;2023-07-13T10:19:26;23.20;99.50
6098;DHT22;3077;50.922;6.584;2023-07-13T10:24:26;23.30;99.90
6098;DHT22;3077;50.922;6.584;2023-07-13T10:27:18;23.40;99.90
6098;DHT22;3077;50.922;6.584;2023-07-13T10:30:02;23.30;99.90
6098;DHT22;3077;50.922;6.584;2023-07-13T10:32:29;23.30;99.90
6098;DHT22;3077;50.922;6.584;2023-07-13T10:34:55;23.10;99.90
6098;DHT22;3077;50.922;6.584;2023-07-13T10:37:26;22.90;99.90
6098;DHT22;3077;50.922;6.584;2023-07-13T10:39:54;23.00;99.90
6098;DHT22;3077;50.922;6.584;2023-07-13T10:42:33;22.90;99.90
6098;DHT22;3077;50.922;6.584;2023-07-13T10:45:01;22.80;99.90
6098;DHT22;3077;50.922;6.584;2023-07-13T10:47:27;22.90;99.90
6098;DHT22;3077;50.922;6.584;2023-07-13T10:49:57;23.10;99.90
6098;DHT22;3077;50.922;6.584;2023-07-13T10:52:43;23.30;99.90
6098;DHT22;3077;50.922;6.584;2023-07-13T10:58:32;23.70;97.80
6098;DHT22;3077;50.922;6.584;2023-07-13T11:03:58;23.40;96.40
6098;DHT22;3077;50.922;6.584;2023-07-13T11:09:17;22.80;97.30
6098;DHT22;3077;50.922;6.584;2023-07-13T11:11:43;22.60;98.70
6098;DHT22;3077;50.922;6.584;2023-07-13T11:15:00;22.60;98.60
6098;DHT22;3077;50.922;6.584;2023-07-13T11:17:51;22.60;96.80
6098;DHT22;3077;50.922;6.584;2023-07-13T11:20:34;22.70;96.10
6098;DHT22;3077;50.922;6.584;2023-07-13T11:23:15;22.90;97.40
6098;DHT22;3077;50.922;6.584;2023-07-13T11:25:43;23.20;97.70
6098;DHT22;3077;50.922;6.584;2023-07-13T11:30:40;23.40;94.80
6098;DHT22;3077;50.922;6.584;2023-07-13T11:33:21;23.40;92.80
6098;DHT22;3077;50.922;6.584;2023-07-13T11:38:40;23.00;93.40
6098;DHT22;3077;50.922;6.584;2023-07-13T11:41:27;22.80;92.90
6098;DHT22;3077;50.922;6.584;2023-07-13T11:44:06;22.70;92.50
6098;DHT22;3077;50.922;6.584;2023-07-13T11:46:32;22.90;93.00
6098;DHT22;3077;50.922;6.584;2023-07-13T11:48:58;23.20;92.90
6098;DHT22;3077;50.922;6.584;2023-07-13T11:51:30;23.30;91.50
6098;DHT22;3077;50.922;6.584;2023-07-13T11:53:59;23.60;90.60
6098;DHT22;3077;50.922;6.584;2023-07-13T11:56:25;23.80;87.50
6098;DHT22;3077;50.922;6.584;2023-07-13T11:58:53;23.60;85.90
6098;DHT22;3077;50.922;6.584;2023-07-13T12:01:26;23.90;85.80
6098;DHT22;3077;50.922;6.584;2023-07-13T12:03:52;24.20;85.60
6098;DHT22;3077;50.922;6.584;2023-07-13T12:06:25;24.40;88.20
6098;DHT22;3077;50.922;6.584;2023-07-13T12:08:51;24.60;80.10
6098;DHT22;3077;50.922;6.584;2023-07-13T12:11:18;24.40;72.10
6098;DHT22;3077;50.922;6.584;2023-07-13T12:13:44;24.10;72.80
6098;DHT22;3077;50.922;6.584;2023-07-13T12:16:23;23.70;73.70
6098;DHT22;3077;50.922;6.584;2023-07-13T12:18:52;23.90;76.60
6098;DHT22;3077;50.922;6.584;2023-07-13T12:21:19;23.90;77.20
6098;DHT22;3077;50.922;6.584;2023-07-13T12:23:49;24.10;74.70
6098;DHT22;3077;50.922;6.584;2023-07-13T12:26:15;24.50;70.30
6098;DHT22;3077;50.922;6.584;2023-07-13T12:28:52;25.10;69.50
6098;DHT22;3077;50.922;6.584;2023-07-13T12:34:06;25.90;57.10
6098;DHT22;3077;50.922;6.584;2023-07-13T12:36:38;26.40;54.90
6098;DHT22;3077;50.922;6.584;2023-07-13T12:39:14;26.60;48.40
6098;DHT22;3077;50.922;6.584;2023-07-13T12:41:40;26.60;49.50
6098;DHT22;3077;50.922;6.584;2023-07-13T12:44:15;27.00;42.50
6098;DHT22;3077;50.922;6.584;2023-07-13T12:46:56;27.30;39.00
6098;DHT22;3077;50.922;6.584;2023-07-13T12:49:28;27.10;36.00
6098;DHT22;3077;50.922;6.584;2023-07-13T12:51:59;27.40;37.80
6098;DHT22;3077;50.922;6.584;2023-07-13T12:54:27;27.80;34.00
6098;DHT22;3077;50.922;6.584;2023-07-13T12:56:53;27.80;27.50
6098;DHT22;3077;50.922;6.584;2023-07-13T12:59:22;27.80;28.30
6098;DHT22;3077;50.922;6.584;2023-07-13T13:01:49;27.70;26.00
6098;DHT22;3077;50.922;6.584;2023-07-13T13:04:15;27.30;27.60
6098;DHT22;3077;50.922;6.584;2023-07-13T13:06:41;26.60;29.80
6098;DHT22;3077;50.922;6.584;2023-07-13T13:09:13;26.50;29.60
6098;DHT22;3077;50.922;6.584;2023-07-13T13:11:39;26.30;30.70
6098;DHT22;3077;50.922;6.584;2023-07-13T13:14:06;26.40;29.20
6098;DHT22;3077;50.922;6.584;2023-07-13T13:16:35;26.50;29.10
6098;DHT22;3077;50.922;6.584;2023-07-13T13:19:14;26.30;28.30
6098;DHT22;3077;50.922;6.584;2023-07-13T13:21:42;26.90;28.50
6098;DHT22;3077;50.922;6.584;2023-07-13T13:24:16;27.30;26.10
6098;DHT22;3077;50.922;6.584;2023-07-13T13:26:43;26.80;24.10
6098;DHT22;3077;50.922;6.584;2023-07-13T13:29:12;26.40;24.80
6098;DHT22;3077;50.922;6.584;2023-07-13T13:31:39;26.50;24.70
6098;DHT22;3077;50.922;6.584;2023-07-13T13:34:10;26.40;25.60
6098;DHT22;3077;50.922;6.584;2023-07-13T13:36:36;26.90;26.60
6098;DHT22;3077;50.922;6.584;2023-07-13T13:39:03;27.10;24.40
6098;DHT22;3077;50.922;6.584;2023-07-13T13:41:31;27.50;24.20
6098;DHT22;3077;50.922;6.584;2023-07-13T13:43:57;28.00;23.70
6098;DHT22;3077;50.922;6.584;2023-07-13T13:46:24;28.10;20.80
6098;DHT22;3077;50.922;6.584;2023-07-13T13:48:55;28.30;20.00
6098;DHT22;3077;50.922;6.584;2023-07-13T13:51:23;28.30;18.60
6098;DHT22;3077;50.922;6.584;2023-07-13T13:53:49;28.50;19.20
6098;DHT22;3077;50.922;6.584;2023-07-13T13:56:17;28.20;18.30
6098;DHT22;3077;50.922;6.584;2023-07-13T13:58:43;28.20;20.40
6098;DHT22;3077;50.922;6.584;2023-07-13T14:01:16;28.20;20.30
6098;DHT22;3077;50.922;6.584;2023-07-13T14:03:43;27.60;19.20
6098;DHT22;3077;50.922;6.584;2023-07-13T14:06:12;27.70;21.90
6098;DHT22;3077;50.922;6.584;2023-07-13T14:08:38;28.30;19.30
6098;DHT22;3077;50.922;6.584;2023-07-13T14:11:04;28.50;17.00
6098;DHT22;3077;50.922;6.584;2023-07-13T14:13:37;28.30;17.20
6098;DHT22;3077;50.922;6.584;2023-07-13T14:16:15;28.00;18.10
6098;DHT22;3077;50.922;6.584;2023-07-13T14:18:42;28.20;18.80
6098;DHT22;3077;50.922;6.584;2023-07-13T14:21:12;28.60;14.80
6098;DHT22;3077;50.922;6.584;2023-07-13T14:23:38;28.90;15.20
6098;DHT22;3077;50.922;6.584;2023-07-13T14:26:30;28.90;14.10
6098;DHT22;3077;50.922;6.584;2023-07-13T14:28:56;28.70;15.00
6098;DHT22;3077;50.922;6.584;2023-07-13T14:31:24;28.80;13.80
6098;DHT22;3077;50.922;6.584;2023-07-13T14:33:50;29.10;12.70
6098;DHT22;3077;50.922;6.584;2023-07-13T14:36:31;29.30;11.90
6098;DHT22;3077;50.922;6.584;2023-07-13T14:38:58;29.40;12.30
6098;DHT22;3077;50.922;6.584;2023-07-13T14:41:25;29.70;11.50
6098;DHT22;3077;50.922;6.584;2023-07-13T14:43:51;29.10;10.60
6098;DHT22;3077;50.922;6.584;2023-07-13T14:46:31;28.80;13.50
6098;DHT22;3077;50.922;6.584;2023-07-13T14:49:03;29.10;11.80
6098;DHT22;3077;50.922;6.584;2023-07-13T14:51:30;28.90;12.20
6098;DHT22;3077;50.922;6.584;2023-07-13T14:53:56;29.00;13.60
6098;DHT22;3077;50.922;6.584;2023-07-13T14:56:21;29.00;14.20
6098;DHT22;3077;50.922;6.584;2023-07-13T14:58:47;28.70;11.90
6098;DHT22;3077;50.922;6.584;2023-07-13T15:01:14;28.00;13.40
6098;DHT22;3077;50.922;6.584;2023-07-13T15:03:45;26.90;13.60
6098;DHT22;3077;50.922;6.584;2023-07-13T15:06:12;26.10;15.20
6098;DHT22;3077;50.922;6.584;2023-07-13T15:08:38;25.60;16.70
6098;DHT22;3077;50.922;6.584;2023-07-13T15:11:04;25.30;19.20
6098;DHT22;3077;50.922;6.584;2023-07-13T15:13:30;25.00;19.10
6098;DHT22;3077;50.922;6.584;2023-07-13T15:15:56;24.90;20.70
6098;DHT22;3077;50.922;6.584;2023-07-13T15:18:23;24.80;21.10
6098;DHT22;3077;50.922;6.584;2023-07-13T15:20:51;24.70;21.50
6098;DHT22;3077;50.922;6.584;2023-07-13T15:23:18;24.60;22.70
6098;DHT22;3077;50.922;6.584;2023-07-13T15:25:45;24.50;22.70
6098;DHT22;3077;50.922;6.584;2023-07-13T15:28:11;23.90;29.40
6098;DHT22;3077;50.922;6.584;2023-07-13T15:30:43;23.40;36.70
6098;DHT22;3077;50.922;6.584;2023-07-13T15:33:25;23.20;42.20
6098;DHT22;3077;50.922;6.584;2023-07-13T15:35:51;22.80;50.30
6098;DHT22;3077;50.922;6.584;2023-07-13T15:38:21;22.50;59.00
6098;DHT22;3077;50.922;6.584;2023-07-13T15:40:48;22.20;70.60
6098;DHT22;3077;50.922;6.584;2023-07-13T15:43:15;22.10;73.70
6098;DHT22;3077;50.922;6.584;2023-07-13T15:45:41;21.90;81.40
6098;DHT22;3077;50.922;6.584;2023-07-13T15:48:23;21.70;89.60
6098;DHT22;3077;50.922;6.584;2023-07-13T15:50:50;21.70;92.00
6098;DHT22;3077;50.922;6.584;2023-07-13T15:53:24;21.50;92.80
6098;DHT22;3077;50.922;6.584;2023-07-13T15:55:51;21.30;94.10
6098;DHT22;3077;50.922;6.584;2023-07-13T15:58:18;21.20;95.80
6098;DHT22;3077;50.922;6.584;2023-07-13T16:00:44;21.20;97.80
6098;DHT22;3077;50.922;6.584;2023-07-13T16:03:10;21.20;97.90
6098;DHT22;3077;50.922;6.584;2023-07-13T16:05:36;21.10;99.10
6098;DHT22;3077;50.922;6.584;2023-07-13T16:08:04;21.20;99.40
6098;DHT22;3077;50.922;6.584;2023-07-13T16:10:33;21.10;99.90
6098;DHT22;3077;50.922;6.584;2023-07-13T16:12:59;21.00;99.90
6098;DHT22;3077;50.922;6.584;2023-07-13T16:15:26;21.00;99.90
6098;DHT22;3077;50.922;6.584;2023-07-13T16:17:51;21.00;99.90
6098;DHT22;3077;50.922;6.584;2023-07-13T16:20:18;21.00;99.90
6098;DHT22;3077;50.922;6.584;2023-07-13T16:22:48;21.00;99.90
6098;DHT22;3077;50.922;6.584;2023-07-13T16:27:40;21.20;99.90
6098;DHT22;3077;50.922;6.584;2023-07-13T16:30:22;21.30;99.90
6098;DHT22;3077;50.922;6.584;2023-07-13T16:32:50;21.30;99.90
6098;DHT22;3077;50.922;6.584;2023-07-13T16:35:20;21.30;99.90
6098;DHT22;3077;50.922;6.584;2023-07-13T16:37:46;21.50;99.90
6098;DHT22;3077;50.922;6.584;2023-07-13T16:40:24;21.70;99.90